createdAt,value
2018-08-09T00:00:39.754Z,20.65
2018-08-09T00:03:08.778Z,20.58
2018-08-09T00:05:37.724Z,20.52
2018-08-09T00:08:06.817Z,20.49
2018-08-09T00:10:35.825Z,20.48
2018-08-09T00:13:04.845Z,20.45
2018-08-09T00:15:33.812Z,20.45
2018-08-09T00:18:02.814Z,20.42
2018-08-09T00:20:31.820Z,20.41
2018-08-09T00:23:00.796Z,20.38
2018-08-09T00:25:29.884Z,20.35
2018-08-09T00:27:58.920Z,20.33
2018-08-09T00:30:27.888Z,20.30
2018-08-09T00:32:56.984Z,20.28
2018-08-09T00:35:25.997Z,20.25
2018-08-09T00:37:54.946Z,20.24
2018-08-09T00:40:23.953Z,20.21
2018-08-09T00:42:53.001Z,20.20
2018-08-09T00:45:22.008Z,20.19
2018-08-09T00:47:51.008Z,20.16
2018-08-09T00:50:19.990Z,20.12
2018-08-09T00:52:49.000Z,20.11
2018-08-09T00:55:18.025Z,20.08
2018-08-09T00:57:47.024Z,20.05
2018-08-09T01:00:16.093Z,20.02
2018-08-09T01:02:45.042Z,20.01
2018-08-09T01:05:13.985Z,19.98
2018-08-09T01:07:43.012Z,19.96
2018-08-09T01:10:12.052Z,19.93
2018-08-09T01:12:41.025Z,19.90
2018-08-09T01:15:09.975Z,19.88
2018-08-09T01:17:39.071Z,19.87
2018-08-09T01:20:08.285Z,19.81
2018-08-09T01:22:37.259Z,19.79
2018-08-09T01:25:06.231Z,19.79
2018-08-09T01:27:35.224Z,19.81
2018-08-09T01:30:04.203Z,19.84
2018-08-09T01:32:33.177Z,19.85
2018-08-09T01:35:02.205Z,19.85
2018-08-09T01:37:31.208Z,19.83
2018-08-09T01:40:00.198Z,19.84
2018-08-09T01:42:40.112Z,19.80
2018-08-09T01:45:09.189Z,19.83
2018-08-09T01:47:38.233Z,19.86
2018-08-09T01:50:07.240Z,19.86
2018-08-09T01:52:36.269Z,19.87
2018-08-09T01:55:05.232Z,19.81
2018-08-09T01:57:34.328Z,19.78
2018-08-09T02:00:03.271Z,19.73
2018-08-09T02:02:32.315Z,19.69
2018-08-09T02:05:01.360Z,19.65
2018-08-09T02:07:30.380Z,19.58
2018-08-09T02:09:59.413Z,19.55
2018-08-09T02:12:28.511Z,19.51
2018-08-09T02:14:57.545Z,19.43
2018-08-09T02:17:26.510Z,19.38
2018-08-09T02:19:55.609Z,19.36
2018-08-09T02:22:24.604Z,19.33
2018-08-09T02:24:53.570Z,19.31
2018-08-09T02:27:22.594Z,19.29
2018-08-09T02:29:51.620Z,19.29
2018-08-09T02:32:20.709Z,19.29
2018-08-09T02:34:49.793Z,19.31
2018-08-09T02:37:18.874Z,19.32
2018-08-09T02:39:47.889Z,19.29
2018-08-09T02:42:16.849Z,19.25
2018-08-09T02:44:45.886Z,19.25
2018-08-09T02:47:14.837Z,19.23
2018-08-09T02:49:43.808Z,19.19
2018-08-09T02:52:12.809Z,19.15
2018-08-09T02:54:41.909Z,19.13
2018-08-09T02:57:10.868Z,19.14
2018-08-09T02:59:39.938Z,19.14
2018-08-09T03:02:08.908Z,19.13
2018-08-09T03:04:37.920Z,19.11
2018-08-09T03:07:07.419Z,19.08
2018-08-09T03:09:36.451Z,19.06
2018-08-09T03:12:05.534Z,19.07
2018-08-09T03:14:34.488Z,19.10
2018-08-09T03:17:03.504Z,19.09
2018-08-09T03:19:32.511Z,19.06
2018-08-09T03:22:01.461Z,19.07
2018-08-09T03:24:30.518Z,19.10
2018-08-09T03:26:59.462Z,19.13
2018-08-09T03:29:28.541Z,19.16
2018-08-09T03:31:57.559Z,19.19
2018-08-09T03:34:26.531Z,19.22
2018-08-09T03:36:55.505Z,19.24
2018-08-09T03:39:24.464Z,19.25
2018-08-09T03:41:53.488Z,19.28
2018-08-09T03:44:22.452Z,19.31
2018-08-09T03:46:51.604Z,19.39
2018-08-09T03:49:20.614Z,19.45
2018-08-09T03:51:49.613Z,19.55
2018-08-09T03:54:18.612Z,19.63
2018-08-09T03:56:47.616Z,19.61
2018-08-09T03:59:16.560Z,19.64
2018-08-09T04:01:45.491Z,19.70
2018-08-09T04:04:14.491Z,19.77
2018-08-09T04:06:43.584Z,19.85
2018-08-09T04:09:12.949Z,19.95
2018-08-09T04:11:42.026Z,20.08
2018-08-09T04:14:11.500Z,20.20
2018-08-09T04:16:40.461Z,20.30
2018-08-09T04:19:09.391Z,20.40
2018-08-09T04:21:38.492Z,20.51
2018-08-09T04:24:07.711Z,20.57
2018-08-09T04:26:36.831Z,20.72
2018-08-09T04:29:05.796Z,21.05
2018-08-09T04:31:34.729Z,22.55
2018-08-09T04:34:03.849Z,24.62
2018-08-09T04:36:32.855Z,26.40
2018-08-09T04:39:01.932Z,27.64
2018-08-09T04:41:30.912Z,28.62
2018-08-09T04:44:00.020Z,29.18
2018-08-09T04:46:28.973Z,29.53
2018-08-09T04:48:58.894Z,30.22
2018-08-09T04:51:27.973Z,30.89
2018-08-09T04:53:56.992Z,31.42
2018-08-09T04:56:26.056Z,31.70
2018-08-09T04:58:54.976Z,32.31
2018-08-09T05:01:24.013Z,32.52
2018-08-09T05:03:53.064Z,32.95
2018-08-09T05:06:21.983Z,32.97
2018-08-09T05:08:50.927Z,33.03
2018-08-09T05:11:19.915Z,33.10
2018-08-09T05:13:48.919Z,33.77
2018-08-09T05:16:17.896Z,33.71
2018-08-09T05:18:46.904Z,34.22
2018-08-09T05:21:15.843Z,34.51
2018-08-09T05:23:44.771Z,34.34
2018-08-09T05:26:13.721Z,34.47
2018-08-09T05:28:42.718Z,34.39
2018-08-09T05:31:11.757Z,34.63
2018-08-09T05:33:41.056Z,34.86
2018-08-09T05:36:10.355Z,34.92
2018-08-09T05:38:39.731Z,34.56
2018-08-09T05:41:08.659Z,34.57
2018-08-09T05:43:37.599Z,34.63
2018-08-09T05:46:06.532Z,34.82
2018-08-09T05:48:35.515Z,34.71
2018-08-09T05:51:04.549Z,34.24
2018-08-09T05:53:33.536Z,33.86
2018-08-09T05:56:02.575Z,33.93
2018-08-09T05:58:31.553Z,34.09
2018-08-09T06:01:00.475Z,33.59
2018-08-09T06:03:29.398Z,33.58
2018-08-09T06:05:58.383Z,33.30
2018-08-09T06:08:27.416Z,32.72
2018-08-09T06:10:56.663Z,31.92
2018-08-09T06:13:26.078Z,31.14
2018-08-09T06:15:55.535Z,30.47
2018-08-09T06:18:24.978Z,29.69
2018-08-09T06:20:54.336Z,29.27
2018-08-09T06:23:23.647Z,29.34
2018-08-09T06:25:52.876Z,29.53
2018-08-09T06:28:22.075Z,29.83
2018-08-09T06:30:51.499Z,30.52
2018-08-09T06:33:20.999Z,31.03
2018-08-09T06:35:50.461Z,30.51
2018-08-09T06:38:19.449Z,30.42
2018-08-09T06:40:48.504Z,29.95
2018-08-09T06:43:17.511Z,30.07
2018-08-09T06:45:46.447Z,30.50
2018-08-09T06:48:15.400Z,30.73
2018-08-09T06:50:44.348Z,30.83
2018-08-09T06:53:13.312Z,31.05
2018-08-09T06:55:42.243Z,31.26
2018-08-09T06:58:11.308Z,31.25
2018-08-09T07:00:40.232Z,31.31
2018-08-09T07:03:09.227Z,31.17
2018-08-09T07:05:38.289Z,30.62
2018-08-09T07:08:07.229Z,30.19
2018-08-09T07:10:36.175Z,30.01
2018-08-09T07:13:05.156Z,30.19
2018-08-09T07:15:34.196Z,30.15
2018-08-09T07:18:03.336Z,29.95
2018-08-09T07:20:32.335Z,29.72
2018-08-09T07:23:01.325Z,29.81
2018-08-09T07:25:30.336Z,29.91
2018-08-09T07:27:59.332Z,29.84
2018-08-09T07:30:28.252Z,29.77
2018-08-09T07:32:57.242Z,29.90
2018-08-09T07:35:26.297Z,30.00
2018-08-09T07:37:55.363Z,30.14
2018-08-09T07:40:24.288Z,30.34
2018-08-09T07:42:53.268Z,30.41
2018-08-09T07:45:22.280Z,30.42
2018-08-09T07:47:51.215Z,30.62
2018-08-09T07:50:20.269Z,30.74
2018-08-09T07:52:49.393Z,30.80
2018-08-09T07:55:18.464Z,30.99
2018-08-09T07:57:47.456Z,31.03
2018-08-09T08:00:16.441Z,31.09
2018-08-09T08:02:45.439Z,31.09
2018-08-09T08:05:14.364Z,31.11
2018-08-09T08:07:43.417Z,31.14
2018-08-09T08:10:12.356Z,31.02
2018-08-09T08:12:41.552Z,31.08
2018-08-09T08:15:11.564Z,30.96
2018-08-09T08:17:40.981Z,30.95
2018-08-09T08:20:10.308Z,30.93
2018-08-09T08:22:39.405Z,31.04
2018-08-09T08:25:08.928Z,31.13
2018-08-09T08:27:37.911Z,31.11
2018-08-09T08:30:10.455Z,31.00
2018-08-09T08:32:40.053Z,30.95
2018-08-09T08:35:09.135Z,30.99
2018-08-09T08:37:38.504Z,31.11
2018-08-09T08:40:08.312Z,31.14
2018-08-09T08:42:37.933Z,31.28
2018-08-09T08:45:09.099Z,31.38
2018-08-09T08:47:38.312Z,31.37
2018-08-09T08:50:07.304Z,31.46
2018-08-09T08:52:36.272Z,31.53
2018-08-09T08:55:07.131Z,31.46
2018-08-09T08:57:36.268Z,31.35
2018-08-09T09:00:07.004Z,31.35
2018-08-09T09:02:36.200Z,31.29
2018-08-09T09:05:06.895Z,31.29
2018-08-09T09:07:36.184Z,31.37
2018-08-09T09:10:05.216Z,31.39
2018-08-09T09:12:34.159Z,31.48
2018-08-09T09:15:03.187Z,31.50
2018-08-09T09:17:32.164Z,31.41
2018-08-09T09:20:01.152Z,31.38
2018-08-09T09:22:30.107Z,31.55
2018-08-09T09:24:59.059Z,31.75
2018-08-09T09:27:28.004Z,31.97
2018-08-09T09:29:56.927Z,32.06
2018-08-09T09:32:26.012Z,32.34
2018-08-09T09:34:55.027Z,32.47
2018-08-09T09:37:24.104Z,32.67
2018-08-09T09:39:53.080Z,32.87
2018-08-09T09:42:22.088Z,33.10
2018-08-09T09:44:51.189Z,33.16
2018-08-09T09:47:20.253Z,33.15
2018-08-09T09:49:49.305Z,33.17
2018-08-09T09:52:18.404Z,33.32
2018-08-09T09:54:47.484Z,33.47
2018-08-09T09:57:16.485Z,33.93
2018-08-09T09:59:45.508Z,34.60
2018-08-09T10:02:14.559Z,35.49
2018-08-09T10:04:43.548Z,35.83
2018-08-09T10:07:12.741Z,35.39
2018-08-09T10:09:41.709Z,35.06
2018-08-09T10:12:10.826Z,34.99
2018-08-09T10:14:39.920Z,34.64
2018-08-09T10:17:08.855Z,34.50
2018-08-09T10:19:37.964Z,34.18
2018-08-09T10:22:07.408Z,33.96
2018-08-09T10:24:36.420Z,34.69
2018-08-09T10:27:05.376Z,35.26
2018-08-09T10:29:34.327Z,35.90
2018-08-09T10:32:03.348Z,35.99
2018-08-09T10:34:32.371Z,36.39
2018-08-09T10:37:01.384Z,36.53
2018-08-09T10:39:30.320Z,36.61
2018-08-09T10:41:59.512Z,36.38
2018-08-09T10:44:28.512Z,36.99
2018-08-09T10:46:57.507Z,37.58
2018-08-09T10:49:26.496Z,38.11
2018-08-09T10:51:55.651Z,38.63
2018-08-09T10:54:24.644Z,38.58
2018-08-09T10:56:53.699Z,38.80
2018-08-09T10:59:22.643Z,39.24
2018-08-09T11:01:51.664Z,39.49
2018-08-09T11:04:20.672Z,39.57
2018-08-09T11:06:49.668Z,39.66
2018-08-09T11:09:18.689Z,39.00
2018-08-09T11:11:47.716Z,39.12
2018-08-09T11:14:16.647Z,39.60
2018-08-09T11:16:45.597Z,40.20
2018-08-09T11:19:14.523Z,40.31
2018-08-09T11:21:43.532Z,40.60
2018-08-09T11:24:12.567Z,40.69
2018-08-09T11:26:41.526Z,41.18
2018-08-09T11:29:10.517Z,40.96
2018-08-09T11:31:39.638Z,40.60
2018-08-09T11:34:08.640Z,40.92
2018-08-09T11:36:37.712Z,40.20
2018-08-09T11:39:10.416Z,40.47
2018-08-09T11:41:39.339Z,40.39
2018-08-09T11:44:08.919Z,40.61
2018-08-09T11:46:37.885Z,40.80
2018-08-09T11:49:06.930Z,40.16
2018-08-09T11:51:35.952Z,40.28
2018-08-09T11:54:04.911Z,41.14
2018-08-09T11:56:33.939Z,41.15
2018-08-09T11:59:02.884Z,40.87
2018-08-09T12:01:32.173Z,41.74
2018-08-09T12:04:01.149Z,41.75
2018-08-09T12:06:30.208Z,41.65
2018-08-09T12:08:59.144Z,41.62
2018-08-09T12:11:28.135Z,42.49
2018-08-09T12:13:57.144Z,42.34
2018-08-09T12:16:26.268Z,43.06
2018-08-09T12:18:55.216Z,43.09
2018-08-09T12:21:24.299Z,43.55
2018-08-09T12:23:53.424Z,42.86
2018-08-09T12:26:22.421Z,41.86
2018-08-09T12:28:51.384Z,40.29
2018-08-09T12:31:20.352Z,38.85
2018-08-09T12:33:49.368Z,38.97
2018-08-09T12:36:18.343Z,39.00
2018-08-09T12:38:47.344Z,39.27
2018-08-09T12:41:16.347Z,39.49
2018-08-09T12:43:45.343Z,40.15
2018-08-09T12:46:14.396Z,41.00
2018-08-09T12:48:43.404Z,41.51
2018-08-09T12:51:12.402Z,42.05
2018-08-09T12:53:41.472Z,42.98
2018-08-09T12:56:10.452Z,43.33
2018-08-09T12:58:39.732Z,42.82
2018-08-09T13:01:08.663Z,42.51
2018-08-09T13:03:37.660Z,41.51
2018-08-09T13:06:06.668Z,41.47
2018-08-09T13:08:35.600Z,41.83
2018-08-09T13:11:04.661Z,40.89
2018-08-09T13:13:33.599Z,40.55
2018-08-09T13:16:02.611Z,40.71
2018-08-09T13:18:31.985Z,41.10
2018-08-09T13:21:00.920Z,41.81
2018-08-09T13:23:29.950Z,40.76
2018-08-09T13:25:58.903Z,40.87
2018-08-09T13:28:27.847Z,41.11
2018-08-09T13:30:56.842Z,41.04
2018-08-09T13:33:25.936Z,40.45
2018-08-09T13:35:54.879Z,39.92
2018-08-09T13:38:23.880Z,39.47
2018-08-09T13:40:52.926Z,39.17
2018-08-09T13:43:21.900Z,38.25
2018-08-09T13:45:50.888Z,38.12
2018-08-09T13:48:19.881Z,38.45
2018-08-09T13:50:48.933Z,38.63
2018-08-09T13:53:17.935Z,38.57
2018-08-09T13:55:47.012Z,38.16
2018-08-09T13:58:16.038Z,38.11
2018-08-09T14:00:44.980Z,37.64
2018-08-09T14:03:14.036Z,37.54
2018-08-09T14:05:43.024Z,37.09
2018-08-09T14:08:12.047Z,36.99
2018-08-09T14:10:41.047Z,36.40
2018-08-09T14:13:10.076Z,35.59
2018-08-09T14:15:39.084Z,34.81
2018-08-09T14:18:08.657Z,34.26
2018-08-09T14:20:38.278Z,33.73
2018-08-09T14:23:08.776Z,33.32
2018-08-09T14:25:38.375Z,33.03
2018-08-09T14:28:08.052Z,32.67
2018-08-09T14:30:37.767Z,32.32
2018-08-09T14:33:07.590Z,32.04
2018-08-09T14:35:38.052Z,31.85
2018-08-09T14:38:08.684Z,31.68
2018-08-09T14:40:38.227Z,31.57
2018-08-09T14:43:07.918Z,31.32
2018-08-09T14:45:38.499Z,31.10
2018-08-09T14:48:08.377Z,30.97
2018-08-09T14:50:37.983Z,30.91
2018-08-09T14:53:07.808Z,30.90
2018-08-09T14:55:37.415Z,30.91
2018-08-09T14:58:08.061Z,30.89
2018-08-09T15:00:37.651Z,30.80
2018-08-09T15:03:07.531Z,30.75
2018-08-09T15:05:37.630Z,30.73
2018-08-09T15:08:07.434Z,30.59
2018-08-09T15:10:37.104Z,30.53
2018-08-09T15:13:06.734Z,30.53
2018-08-09T15:15:36.368Z,30.49
2018-08-09T15:18:05.981Z,30.45
2018-08-09T15:20:35.510Z,30.44
2018-08-09T15:23:05.334Z,30.37
2018-08-09T15:25:34.323Z,30.35
2018-08-09T15:28:03.283Z,30.27
2018-08-09T15:30:32.349Z,30.17
2018-08-09T15:33:01.292Z,30.13
2018-08-09T15:35:30.827Z,30.05
2018-08-09T15:38:00.558Z,30.04
2018-08-09T15:40:30.113Z,29.97
2018-08-09T15:42:59.732Z,29.90
2018-08-09T15:45:28.901Z,29.83
2018-08-09T15:47:57.927Z,29.76
2018-08-09T15:50:26.880Z,29.74
2018-08-09T15:52:55.836Z,29.73
2018-08-09T15:55:24.826Z,29.71
2018-08-09T15:57:53.846Z,29.72
2018-08-09T16:00:24.192Z,29.76
2018-08-09T16:02:53.254Z,29.77
2018-08-09T16:05:22.274Z,29.71
2018-08-09T16:07:51.207Z,29.65
2018-08-09T16:10:20.215Z,29.64
2018-08-09T16:12:49.345Z,29.64
2018-08-09T16:15:19.628Z,29.56
2018-08-09T16:17:49.428Z,29.46
2018-08-09T16:20:18.424Z,29.37
2018-08-09T16:22:47.650Z,29.33
2018-08-09T16:25:18.076Z,29.18
2018-08-09T16:27:48.243Z,29.17
2018-08-09T16:30:23.280Z,29.07
2018-08-09T16:32:52.624Z,28.96
2018-08-09T16:35:22.751Z,28.94
2018-08-09T16:37:51.777Z,28.89
2018-08-09T16:40:23.404Z,28.87
2018-08-09T16:42:52.388Z,28.80
2018-08-09T16:45:22.500Z,28.70
2018-08-09T16:47:52.351Z,28.59
2018-08-09T16:50:22.795Z,28.51
2018-08-09T16:52:52.179Z,28.38
2018-08-09T16:55:22.479Z,28.27
2018-08-09T16:57:51.540Z,28.23
2018-08-09T17:00:21.894Z,28.12
2018-08-09T17:02:51.402Z,28.07
2018-08-09T17:05:21.524Z,27.98
2018-08-09T17:07:51.691Z,27.88
2018-08-09T17:10:21.767Z,27.78
2018-08-09T17:12:51.368Z,27.68
2018-08-09T17:15:22.085Z,27.57
2018-08-09T17:17:51.916Z,27.45
2018-08-09T17:20:24.649Z,27.31
2018-08-09T17:22:53.655Z,27.16
2018-08-09T17:25:23.559Z,27.05
2018-08-09T17:27:52.649Z,26.90
2018-08-09T17:30:24.130Z,26.68
2018-08-09T17:32:53.119Z,26.46
2018-08-09T17:35:22.239Z,26.23
2018-08-09T17:37:52.262Z,26.10
2018-08-09T17:40:25.999Z,25.93
2018-08-09T17:42:57.984Z,25.74
2018-08-09T17:45:34.608Z,25.65
2018-08-09T17:48:04.925Z,25.52
2018-08-09T17:50:33.947Z,25.40
2018-08-09T17:53:04.379Z,25.31
2018-08-09T17:55:34.183Z,25.15
2018-08-09T17:58:03.169Z,25.10
2018-08-09T18:00:33.371Z,25.02
2018-08-09T18:03:02.309Z,24.92
2018-08-09T18:05:31.256Z,24.85
2018-08-09T18:08:00.456Z,24.79
2018-08-09T18:10:31.733Z,24.73
2018-08-09T18:13:00.736Z,24.65
2018-08-09T18:15:30.501Z,24.59
2018-08-09T18:18:00.143Z,24.52
2018-08-09T18:20:32.689Z,24.43
2018-08-09T18:23:01.707Z,24.39
2018-08-09T18:25:30.639Z,24.35
2018-08-09T18:27:59.669Z,24.31
2018-08-09T18:30:28.595Z,24.25
2018-08-09T18:32:57.692Z,24.18
2018-08-09T18:35:26.720Z,24.11
2018-08-09T18:37:57.119Z,24.07
2018-08-09T18:40:27.636Z,24.04
2018-08-09T18:42:58.195Z,23.95
2018-08-09T18:45:27.171Z,23.85
2018-08-09T18:47:58.085Z,23.78
2018-08-09T18:50:28.294Z,23.65
2018-08-09T18:52:57.444Z,23.54
2018-08-09T18:55:26.456Z,23.49
2018-08-09T18:57:55.408Z,23.42
2018-08-09T19:00:26.257Z,23.34
2018-08-09T19:02:55.756Z,23.28
2018-08-09T19:05:25.219Z,23.18
2018-08-09T19:07:54.319Z,23.12
2018-08-09T19:10:24.853Z,23.08
2018-08-09T19:12:53.876Z,23.06
2018-08-09T19:15:22.893Z,23.09
2018-08-09T19:17:52.259Z,23.08
2018-08-09T19:20:24.283Z,23.05
2018-08-09T19:22:53.491Z,22.91
2018-08-09T19:25:22.550Z,22.87
2018-08-09T19:27:51.507Z,22.89
2018-08-09T19:30:21.999Z,22.92
2018-08-09T19:32:51.240Z,22.94
2018-08-09T19:35:21.027Z,22.98
2018-08-09T19:37:50.046Z,23.02
2018-08-09T19:40:23.000Z,22.96
2018-08-09T19:42:51.952Z,22.91
2018-08-09T19:45:21.251Z,22.88
2018-08-09T19:47:50.389Z,22.90
2018-08-09T19:50:20.913Z,22.85
2018-08-09T19:52:49.920Z,22.80
2018-08-09T19:55:21.306Z,22.71
2018-08-09T19:57:50.880Z,22.70
2018-08-09T20:00:21.627Z,22.66
2018-08-09T20:02:50.663Z,22.65
2018-08-09T20:05:19.831Z,22.62
2018-08-09T20:07:48.840Z,22.61
2018-08-09T20:10:17.848Z,22.57
2018-08-09T20:12:47.788Z,22.54
2018-08-09T20:15:19.269Z,22.54
2018-08-09T20:17:48.308Z,22.53
2018-08-09T20:20:18.668Z,22.50
2018-08-09T20:22:47.731Z,22.49
2018-08-09T20:25:16.891Z,22.47
2018-08-09T20:27:46.578Z,22.46
2018-08-09T20:30:17.473Z,22.41
2018-08-09T20:32:47.007Z,22.37
2018-08-09T20:35:21.979Z,22.33
2018-08-09T20:37:51.456Z,22.30
2018-08-09T20:40:21.472Z,22.24
2018-08-09T20:42:51.444Z,22.17
2018-08-09T20:45:21.744Z,22.13
2018-08-09T20:47:50.778Z,22.12
2018-08-09T20:50:22.416Z,22.09
2018-08-09T20:52:51.914Z,22.00
2018-08-09T20:55:20.932Z,21.93
2018-08-09T20:57:50.747Z,21.87
2018-08-09T21:00:21.676Z,21.83
2018-08-09T21:02:51.827Z,21.79
2018-08-09T21:05:25.432Z,21.76
2018-08-09T21:07:55.161Z,21.75
2018-08-09T21:10:24.535Z,21.72
2018-08-09T21:12:53.589Z,21.73
2018-08-09T21:15:22.672Z,21.72
2018-08-09T21:17:51.673Z,21.71
2018-08-09T21:20:20.688Z,21.67
2018-08-09T21:22:50.272Z,21.66
2018-08-09T21:25:19.409Z,21.66
2018-08-09T21:27:48.827Z,21.65
2018-08-09T21:30:19.201Z,21.58
2018-08-09T21:32:48.615Z,21.57
2018-08-09T21:35:17.571Z,21.52
2018-08-09T21:37:46.736Z,21.50
2018-08-09T21:40:16.056Z,21.49
2018-08-09T21:42:45.074Z,21.59
2018-08-09T21:45:16.752Z,21.61
2018-08-09T21:47:45.828Z,21.60
2018-08-09T21:50:16.808Z,21.59
2018-08-09T21:52:45.841Z,21.54
2018-08-09T21:55:15.083Z,21.48
2018-08-09T21:57:45.008Z,21.45
2018-08-09T22:00:53.971Z,21.43
2018-08-09T22:03:25.850Z,21.43
2018-08-09T22:05:59.876Z,21.43
2018-08-09T22:08:33.963Z,21.45
2018-08-09T22:11:08.342Z,21.48
2018-08-09T22:13:42.473Z,21.49
2018-08-09T22:16:16.621Z,21.46
2018-08-09T22:18:50.612Z,21.43
2018-08-09T22:21:24.634Z,21.35
2018-08-09T22:23:53.697Z,21.29
2018-08-09T22:26:22.744Z,21.21
2018-08-09T22:28:51.695Z,21.14
2018-08-09T22:31:20.696Z,21.06
2018-08-09T22:33:49.768Z,21.04
2018-08-09T22:36:18.856Z,20.98
2018-08-09T22:38:47.875Z,20.93
2018-08-09T22:41:16.917Z,20.90
2018-08-09T22:43:45.924Z,20.87
2018-08-09T22:46:14.860Z,20.79
2018-08-09T22:48:43.863Z,20.72
2018-08-09T22:51:12.811Z,20.69
2018-08-09T22:53:41.814Z,20.63
2018-08-09T22:56:10.743Z,20.58
2018-08-09T22:58:39.776Z,20.54
2018-08-09T23:01:08.726Z,20.50
2018-08-09T23:03:37.669Z,20.46
2018-08-09T23:06:07.104Z,20.43
2018-08-09T23:08:36.084Z,20.40
2018-08-09T23:11:05.159Z,20.33
2018-08-09T23:13:34.155Z,20.32
2018-08-09T23:16:03.089Z,20.30
2018-08-09T23:18:32.160Z,20.24
2018-08-09T23:21:01.197Z,20.22
2018-08-09T23:23:30.208Z,20.18
2018-08-09T23:25:59.137Z,20.14
2018-08-09T23:28:28.151Z,20.10
2018-08-09T23:30:57.135Z,20.02
2018-08-09T23:33:26.493Z,20.00
2018-08-09T23:35:55.581Z,19.95
2018-08-09T23:38:24.516Z,19.89
2018-08-09T23:40:53.544Z,19.84
2018-08-09T23:43:22.494Z,19.79
2018-08-09T23:45:51.568Z,19.77
2018-08-09T23:48:20.637Z,19.73
2018-08-09T23:50:49.628Z,19.70
2018-08-09T23:53:18.632Z,19.67
2018-08-09T23:55:47.559Z,19.64
2018-08-09T23:58:16.545Z,19.61
